createdAt,value
2023-02-21T00:01:58.051Z,98556.88
2023-02-21T00:04:43.426Z,98560.34
2023-02-21T00:07:28.343Z,98553.97
2023-02-21T00:10:13.306Z,98560.91
2023-02-21T00:12:58.589Z,98568.94
2023-02-21T00:15:44.000Z,98519.00
2023-02-21T00:18:29.972Z,98539.22
2023-02-21T00:21:15.261Z,98543.66
2023-02-21T00:24:00.493Z,98564.78
2023-02-21T00:26:45.578Z,98576.16
2023-02-21T00:29:30.714Z,98575.34
2023-02-21T00:32:16.179Z,98565.06
2023-02-21T00:35:01.504Z,98562.13
2023-02-21T00:37:46.462Z,98561.72
2023-02-21T00:40:33.419Z,98552.81
2023-02-21T00:43:18.529Z,98559.78
2023-02-21T00:46:04.093Z,98552.69
2023-02-21T00:48:49.608Z,98550.59
2023-02-21T00:51:35.789Z,98551.31
2023-02-21T00:54:20.893Z,98551.72
2023-02-21T00:57:06.025Z,98559.91
2023-02-21T00:59:51.020Z,98546.72
2023-02-21T01:02:35.952Z,98539.22
2023-02-21T01:05:20.972Z,98541.31
2023-02-21T01:08:06.376Z,98534.25
2023-02-21T01:10:51.938Z,98531.19
2023-02-21T01:13:37.286Z,98532.00
2023-02-21T01:16:22.152Z,98530.06
2023-02-21T01:19:08.046Z,98519.81
2023-02-21T01:21:52.944Z,98520.63
2023-02-21T01:24:37.924Z,98523.41
2023-02-21T01:27:23.096Z,98528.13
2023-02-21T01:30:08.495Z,98519.53
2023-02-21T01:32:53.670Z,98502.00
2023-02-21T01:35:39.176Z,98494.38
2023-02-21T01:38:24.283Z,98498.41
2023-02-21T01:41:09.312Z,98491.63
2023-02-21T01:43:54.207Z,98496.06
2023-02-21T01:46:40.243Z,98502.00
2023-02-21T01:49:37.249Z,98505.34
2023-02-21T01:52:24.391Z,98493.25
2023-02-21T01:55:13.518Z,98494.50
2023-02-21T01:57:59.828Z,98507.28
2023-02-21T02:00:44.657Z,98508.81
2023-02-21T02:03:34.084Z,98499.09
2023-02-21T02:06:23.369Z,98490.91
2023-02-21T02:09:08.408Z,98484.63
2023-02-21T02:12:26.077Z,98486.97
2023-02-21T02:15:08.051Z,98479.75
2023-02-21T02:17:57.255Z,98481.41
2023-02-21T02:20:59.575Z,98485.03
2023-02-21T02:23:57.026Z,98487.53
2023-02-21T02:26:47.950Z,98493.78
2023-02-21T02:29:45.183Z,98486.69
2023-02-21T02:32:42.536Z,98495.31
2023-02-21T02:35:28.134Z,98496.28
2023-02-21T02:38:21.828Z,98488.09
2023-02-21T02:41:13.121Z,98493.38
2023-02-21T02:43:50.143Z,98496.69
2023-02-21T02:46:27.160Z,98490.56
2023-02-21T02:49:10.930Z,98485.47
2023-02-21T02:51:37.534Z,98493.38
2023-02-21T02:54:04.470Z,98494.06
2023-02-21T02:56:30.946Z,98489.47
2023-02-21T02:59:06.092Z,98498.91
2023-02-21T03:01:48.669Z,98490.28
2023-02-21T03:04:33.819Z,98487.78
2023-02-21T03:07:47.970Z,98494.72
2023-02-21T03:10:28.454Z,98486.81
2023-02-21T03:13:06.226Z,98498.34
2023-02-21T03:15:47.425Z,98505.00
2023-02-21T03:18:27.966Z,98501.28
2023-02-21T03:20:59.634Z,98483.38
2023-02-21T03:23:29.901Z,98502.81
2023-02-21T03:25:59.830Z,98496.81
2023-02-21T03:28:26.858Z,98497.53
2023-02-21T03:30:56.663Z,98494.19
2023-02-21T03:33:24.198Z,98491.69
2023-02-21T03:35:52.163Z,98489.06
2023-02-21T03:38:18.588Z,98486.41
2023-02-21T03:40:45.197Z,98482.09
2023-02-21T03:43:11.781Z,98477.44
2023-02-21T03:45:38.312Z,98468.94
2023-02-21T03:48:04.944Z,98462.59
2023-02-21T03:50:31.368Z,98454.53
2023-02-21T03:52:57.884Z,98460.88
2023-02-21T03:55:24.554Z,98454.25
2023-02-21T03:57:50.986Z,98453.16
2023-02-21T04:00:17.681Z,98458.13
2023-02-21T04:02:44.351Z,98472.72
2023-02-21T04:05:10.948Z,98472.88
2023-02-21T04:07:37.539Z,98476.06
2023-02-21T04:10:06.969Z,98479.41
2023-02-21T04:12:33.455Z,98489.66
2023-02-21T04:15:00.276Z,98483.84
2023-02-21T04:17:27.034Z,98473.72
2023-02-21T04:19:53.716Z,98462.34
2023-02-21T04:22:20.164Z,98467.06
2023-02-21T04:24:48.208Z,98476.34
2023-02-21T04:27:15.544Z,98473.19
2023-02-21T04:29:42.065Z,98476.50
2023-02-21T04:32:10.662Z,98475.13
2023-02-21T04:34:37.436Z,98464.59
2023-02-21T04:37:03.848Z,98451.94
2023-02-21T04:39:30.332Z,98457.78
2023-02-21T04:42:00.571Z,98460.44
2023-02-21T04:44:27.067Z,98440.72
2023-02-21T04:46:53.544Z,98455.16
2023-02-21T04:49:20.471Z,98453.75
2023-02-21T04:51:47.094Z,98454.31
2023-02-21T04:54:14.262Z,98413.00
2023-02-21T04:56:42.541Z,98446.84
2023-02-21T04:59:09.115Z,98446.41
2023-02-21T05:01:35.619Z,98446.28
2023-02-21T05:04:02.946Z,98424.38
2023-02-21T05:06:32.084Z,98439.34
2023-02-21T05:08:59.350Z,98444.34
2023-02-21T05:11:26.413Z,98437.97
2023-02-21T05:13:53.866Z,98438.78
2023-02-21T05:16:20.877Z,98448.50
2023-02-21T05:18:48.626Z,98439.31
2023-02-21T05:21:18.359Z,98437.25
2023-02-21T05:23:55.711Z,98435.16
2023-02-21T05:26:35.479Z,98433.81
2023-02-21T05:29:02.818Z,98402.16
2023-02-21T05:31:29.868Z,98424.63
2023-02-21T05:33:57.438Z,98405.22
2023-02-21T05:36:26.890Z,98406.91
2023-02-21T05:38:55.611Z,98415.34
2023-02-21T05:41:23.201Z,98402.75
2023-02-21T05:43:50.125Z,98424.91
2023-02-21T05:46:22.815Z,98414.34
2023-02-21T05:48:49.638Z,98399.53
2023-02-21T05:51:20.442Z,98395.09
2023-02-21T05:53:47.408Z,98402.03
2023-02-21T05:56:14.796Z,98394.94
2023-02-21T05:58:41.416Z,98386.91
2023-02-21T06:01:08.181Z,98386.38
2023-02-21T06:03:34.861Z,98385.25
2023-02-21T06:06:01.616Z,98378.88
2023-02-21T06:08:28.338Z,98358.63
2023-02-21T06:10:55.050Z,98371.09
2023-02-21T06:13:22.558Z,98369.44
2023-02-21T06:15:49.121Z,98395.25
2023-02-21T06:18:18.489Z,98382.06
2023-02-21T06:20:45.125Z,98384.69
2023-02-21T06:23:11.794Z,98383.06
2023-02-21T06:25:38.906Z,98384.16
2023-02-21T06:28:05.409Z,98363.84
2023-02-21T06:30:32.356Z,98382.47
2023-02-21T06:32:59.860Z,98392.03
2023-02-21T06:35:26.523Z,98396.38
2023-02-21T06:37:53.152Z,98391.78
2023-02-21T06:40:19.803Z,98374.69
2023-02-21T06:42:46.787Z,98401.44
2023-02-21T06:45:13.340Z,98406.16
2023-02-21T06:47:39.813Z,98411.31
2023-02-21T06:50:09.836Z,98388.03
2023-02-21T06:52:36.869Z,98417.28
2023-02-21T06:55:03.668Z,98408.84
2023-02-21T06:57:30.539Z,98416.03
2023-02-21T06:59:57.212Z,98410.19
2023-02-21T07:02:25.526Z,98395.13
2023-02-21T07:04:52.460Z,98395.81
2023-02-21T07:07:19.289Z,98422.00
2023-02-21T07:09:45.814Z,98422.00
2023-02-21T07:12:12.658Z,98426.31
2023-02-21T07:14:39.193Z,98403.84
2023-02-21T07:17:05.787Z,98420.47
2023-02-21T07:19:32.267Z,98397.56
2023-02-21T07:21:58.756Z,98421.81
2023-02-21T07:24:26.110Z,98404.69
2023-02-21T07:26:52.901Z,98421.81
2023-02-21T07:29:19.574Z,98422.22
2023-02-21T07:31:47.112Z,98431.63
2023-02-21T07:34:15.320Z,98420.94
2023-02-21T07:36:42.027Z,98414.31
2023-02-21T07:39:10.622Z,98450.09
2023-02-21T07:41:37.125Z,98441.66
2023-02-21T07:44:03.730Z,98444.84
2023-02-21T07:46:30.718Z,98443.41
2023-02-21T07:48:57.927Z,98450.59
2023-02-21T07:51:31.175Z,98440.66
2023-02-21T07:53:57.767Z,98439.53
2023-02-21T07:56:25.541Z,98460.88
2023-02-21T07:58:52.695Z,98464.75
2023-02-21T08:01:23.643Z,98477.59
2023-02-21T08:03:50.295Z,98433.47
2023-02-21T08:06:18.361Z,98455.81
2023-02-21T08:08:45.682Z,98439.59
2023-02-21T08:11:12.279Z,98469.81
2023-02-21T08:13:38.730Z,98434.38
2023-02-21T08:16:05.751Z,98451.16
2023-02-21T08:18:32.290Z,98443.63
2023-02-21T08:20:58.832Z,98469.00
2023-02-21T08:23:25.335Z,98473.56
2023-02-21T08:25:51.967Z,98480.56
2023-02-21T08:28:18.568Z,98477.16
2023-02-21T08:30:46.187Z,98481.03
2023-02-21T08:33:13.677Z,98467.50
2023-02-21T08:35:40.190Z,98487.59
2023-02-21T08:38:06.834Z,98454.41
2023-02-21T08:40:33.468Z,98484.34
2023-02-21T08:43:00.893Z,98477.72
2023-02-21T08:45:29.060Z,98471.94
2023-02-21T08:47:56.758Z,98481.97
2023-02-21T08:50:25.612Z,98475.25
2023-02-21T08:52:52.348Z,98476.47
2023-02-21T08:55:19.761Z,98478.22
2023-02-21T08:57:49.836Z,98483.84
2023-02-21T09:00:17.939Z,98490.25
2023-02-21T09:02:44.665Z,98471.09
2023-02-21T09:05:14.324Z,98488.72
2023-02-21T09:07:41.324Z,98488.03
2023-02-21T09:10:10.867Z,98497.47
2023-02-21T09:12:40.297Z,98489.94
2023-02-21T09:15:07.931Z,98489.38
2023-02-21T09:17:34.950Z,98494.69
2023-02-21T09:20:05.339Z,98492.00
2023-02-21T09:22:31.757Z,98498.69
2023-02-21T09:24:58.925Z,98493.72
2023-02-21T09:27:37.551Z,98493.72
2023-02-21T09:30:07.073Z,98482.56
2023-02-21T09:32:34.090Z,98488.91
2023-02-21T09:35:00.762Z,98485.31
2023-02-21T09:37:28.077Z,98484.09
2023-02-21T09:39:54.731Z,98489.50
2023-02-21T09:42:27.838Z,98477.47
2023-02-21T09:44:54.408Z,98473.25
2023-02-21T09:47:36.354Z,98470.97
2023-02-21T09:50:14.245Z,98462.19
2023-02-21T09:52:41.660Z,98471.56
2023-02-21T09:55:21.427Z,98476.84
2023-02-21T09:57:47.864Z,98488.22
2023-02-21T10:00:21.215Z,98488.66
2023-02-21T10:02:50.853Z,98488.50
2023-02-21T10:05:29.870Z,98479.97
2023-02-21T10:08:22.454Z,98487.31
2023-02-21T10:10:53.691Z,98494.09
2023-02-21T10:13:39.636Z,98485.44
2023-02-21T10:16:23.120Z,98488.09
2023-02-21T10:19:22.190Z,98486.63
2023-02-21T10:21:49.738Z,98490.44
2023-02-21T10:24:24.350Z,98489.19
2023-02-21T10:26:57.612Z,98477.31
2023-02-21T10:29:27.307Z,98490.91
2023-02-21T10:32:03.465Z,98486.44
2023-02-21T10:34:32.655Z,98497.41
2023-02-21T10:37:26.719Z,98483.47
2023-02-21T10:40:00.118Z,98483.91
2023-02-21T10:42:42.743Z,98483.97
2023-02-21T10:45:12.938Z,98491.47
2023-02-21T10:47:56.406Z,98491.34
2023-02-21T10:51:05.626Z,98497.00
2023-02-21T10:53:40.777Z,98492.25
2023-02-21T10:56:20.915Z,98495.19
2023-02-21T10:58:52.599Z,98493.66
2023-02-21T11:01:30.436Z,98499.91
2023-02-21T11:04:02.505Z,98488.63
2023-02-21T11:06:36.755Z,98484.41
2023-02-21T11:09:24.869Z,98491.63
2023-02-21T11:12:23.097Z,98465.44
2023-02-21T11:14:52.260Z,98452.09
2023-02-21T11:17:28.646Z,98443.81
2023-02-21T11:20:00.742Z,98446.16
2023-02-21T11:22:42.909Z,98440.63
2023-02-21T11:25:12.296Z,98445.06
2023-02-21T11:27:39.453Z,98443.72
2023-02-21T11:30:21.461Z,98438.25
2023-02-21T11:33:00.589Z,98434.47
2023-02-21T11:36:05.946Z,98426.59
2023-02-21T11:38:41.027Z,98418.69
2023-02-21T11:41:20.811Z,98373.28
2023-02-21T11:43:52.530Z,98379.91
2023-02-21T11:46:23.514Z,98359.16
2023-02-21T11:49:49.835Z,98339.09
2023-02-21T11:52:26.029Z,98305.72
2023-02-21T11:54:52.667Z,98237.53
2023-02-21T11:59:58.803Z,98097.47
2023-02-21T12:02:41.469Z,98047.47
2023-02-21T12:05:26.134Z,98025.69
2023-02-21T12:07:53.177Z,98043.84
2023-02-21T12:10:37.910Z,98032.41
2023-02-21T12:13:26.461Z,98042.59
2023-02-21T12:16:22.370Z,98038.22
2023-02-21T12:18:48.885Z,98035.34
2023-02-21T12:21:25.384Z,98023.31
2023-02-21T12:24:10.110Z,98028.00
2023-02-21T12:26:51.579Z,98000.75
2023-02-21T12:29:30.404Z,98000.59
2023-02-21T12:32:15.558Z,98009.72
2023-02-21T12:35:14.898Z,98020.38
2023-02-21T12:38:04.383Z,97995.34
2023-02-21T12:40:52.133Z,97992.81
2023-02-21T12:43:47.728Z,97981.88
2023-02-21T12:46:28.144Z,98001.31
2023-02-21T12:49:20.874Z,97996.28
2023-02-21T12:51:56.921Z,97994.59
2023-02-21T12:54:36.737Z,98001.38
2023-02-21T12:57:10.926Z,97996.25
2023-02-21T12:59:58.334Z,97999.28
2023-02-21T13:02:44.515Z,97983.00
2023-02-21T13:05:18.675Z,97995.94
2023-02-21T13:07:56.175Z,97982.22
2023-02-21T13:10:28.536Z,97979.56
2023-02-21T13:13:04.800Z,97975.44
2023-02-21T13:15:31.650Z,97979.75
2023-02-21T13:18:11.568Z,97990.28
2023-02-21T13:20:49.571Z,97984.91
2023-02-21T13:23:16.507Z,97987.47
2023-02-21T13:26:10.823Z,97987.38
2023-02-21T13:28:38.862Z,97988.47
2023-02-21T13:31:08.091Z,97973.06
2023-02-21T13:33:44.115Z,97981.41
2023-02-21T13:36:38.505Z,97981.81
2023-02-21T13:39:14.578Z,97982.84
2023-02-21T13:41:43.308Z,97982.03
2023-02-21T13:44:16.690Z,97975.53
2023-02-21T13:46:43.278Z,97969.97
2023-02-21T13:49:48.233Z,97973.16
2023-02-21T13:52:23.473Z,97967.94
2023-02-21T13:55:11.875Z,97963.84
2023-02-21T13:57:41.030Z,97965.34
2023-02-21T14:00:25.491Z,97959.88
2023-02-21T14:03:13.932Z,97964.66
2023-02-21T14:05:46.250Z,97965.75
2023-02-21T14:08:19.864Z,97962.34
2023-02-21T14:10:50.245Z,97968.97
2023-02-21T14:13:44.716Z,97961.78
2023-02-21T14:16:15.036Z,97956.88
2023-02-21T14:19:07.405Z,97952.91
2023-02-21T14:21:47.952Z,97942.28
2023-02-21T14:24:25.597Z,97936.81
2023-02-21T14:26:51.979Z,97932.41
2023-02-21T14:29:40.180Z,97942.66
2023-02-21T14:32:09.598Z,97941.47
2023-02-21T14:34:48.329Z,97944.88
2023-02-21T14:37:38.371Z,97932.84
2023-02-21T14:40:10.901Z,97918.66
2023-02-21T14:42:54.898Z,97925.09
2023-02-21T14:45:30.028Z,97930.19
2023-02-21T14:48:05.658Z,97924.41
2023-02-21T14:51:03.107Z,97925.59
2023-02-21T14:54:01.405Z,97924.38
2023-02-21T14:57:04.514Z,97920.75
2023-02-21T14:59:42.976Z,97923.75
2023-02-21T15:02:30.015Z,97924.41
2023-02-21T15:05:19.742Z,97926.00
2023-02-21T15:07:49.364Z,97927.31
2023-02-21T15:10:21.327Z,97924.59
2023-02-21T15:13:02.580Z,97929.22
2023-02-21T15:15:42.226Z,97936.91
2023-02-21T15:18:23.979Z,97953.19
2023-02-21T15:21:02.868Z,97944.59
2023-02-21T15:23:29.662Z,97958.75
2023-02-21T15:25:58.732Z,97942.22
2023-02-21T15:28:29.009Z,97947.59
2023-02-21T15:30:59.879Z,97957.91
2023-02-21T15:33:30.340Z,97955.91
2023-02-21T15:36:00.973Z,97956.63
2023-02-21T15:38:30.401Z,97953.97
2023-02-21T15:41:03.124Z,97944.53
2023-02-21T15:43:48.475Z,97954.38
2023-02-21T15:46:31.240Z,97955.94
2023-02-21T15:49:02.821Z,97954.69
2023-02-21T15:51:30.344Z,97958.97
2023-02-21T15:54:10.703Z,97955.09
2023-02-21T15:56:37.666Z,97943.44
2023-02-21T15:59:13.487Z,97969.72
2023-02-21T16:01:40.326Z,97951.09
2023-02-21T16:04:23.455Z,97940.25
2023-02-21T16:06:58.054Z,97946.00
2023-02-21T16:09:30.236Z,97972.53
2023-02-21T16:12:03.349Z,97970.97
2023-02-21T16:14:45.123Z,97979.84
2023-02-21T16:17:29.072Z,97993.63
2023-02-21T16:20:09.790Z,97998.44
2023-02-21T16:22:59.546Z,97997.97
2023-02-21T16:25:25.737Z,97992.53
2023-02-21T16:27:56.280Z,98005.25
2023-02-21T16:30:24.396Z,98000.78
2023-02-21T16:32:54.164Z,97999.28
2023-02-21T16:35:26.153Z,97995.47
2023-02-21T16:37:58.538Z,98008.75
2023-02-21T16:40:30.589Z,98004.56
2023-02-21T16:42:59.616Z,98019.72
2023-02-21T16:45:26.138Z,98026.94
2023-02-21T16:47:58.296Z,98026.06
2023-02-21T16:50:31.130Z,98043.28
2023-02-21T16:52:58.350Z,98015.84
2023-02-21T16:55:25.750Z,98047.63
2023-02-21T16:57:56.135Z,98024.28
2023-02-21T17:00:23.187Z,98039.81
2023-02-21T17:02:50.947Z,98031.56
2023-02-21T17:05:18.654Z,98066.50
2023-02-21T17:07:45.225Z,98067.84
2023-02-21T17:10:12.040Z,98054.09
2023-02-21T17:12:38.582Z,98032.63
2023-02-21T17:15:05.932Z,98093.03
2023-02-21T17:17:33.423Z,98097.97
2023-02-21T17:20:00.017Z,98104.63
2023-02-21T17:22:27.079Z,98110.91
2023-02-21T17:24:53.896Z,98112.22
2023-02-21T17:27:20.392Z,98111.91
2023-02-21T17:29:48.570Z,98121.50
2023-02-21T17:32:18.403Z,98106.28
2023-02-21T17:34:45.091Z,98103.97
2023-02-21T17:37:11.746Z,98145.34
2023-02-21T17:39:38.167Z,98146.50
2023-02-21T17:42:04.938Z,98154.28
2023-02-21T17:44:33.691Z,98122.16
2023-02-21T17:47:00.362Z,98142.19
2023-02-21T17:49:28.482Z,98129.63
2023-02-21T17:51:55.606Z,98144.38
2023-02-21T17:54:24.558Z,98145.34
2023-02-21T17:56:52.567Z,98163.22
2023-02-21T17:59:19.829Z,98162.22
2023-02-21T18:01:46.909Z,98168.19
2023-02-21T18:04:15.741Z,98173.16
2023-02-21T18:06:42.938Z,98147.97
2023-02-21T18:09:11.329Z,98153.13
2023-02-21T18:11:38.003Z,98170.00
2023-02-21T18:14:04.926Z,98158.91
2023-02-21T18:16:31.508Z,98176.13
2023-02-21T18:18:59.115Z,98138.72
2023-02-21T18:21:27.458Z,98133.25
2023-02-21T18:23:54.466Z,98130.09
2023-02-21T18:26:22.188Z,98146.34
2023-02-21T18:28:48.848Z,98137.91
2023-02-21T18:31:19.404Z,98121.34
2023-02-21T18:33:46.855Z,98135.03
2023-02-21T18:36:13.470Z,98127.53
2023-02-21T18:38:41.369Z,98101.59
2023-02-21T18:41:16.962Z,98073.81
2023-02-21T18:43:44.268Z,98031.84
2023-02-21T18:46:12.814Z,98036.66
2023-02-21T18:48:43.306Z,98014.34
2023-02-21T18:51:11.374Z,98002.41
2023-02-21T18:53:38.036Z,97991.69
2023-02-21T18:56:10.599Z,97969.50
2023-02-21T18:58:38.904Z,97940.91
2023-02-21T19:01:07.112Z,97945.88
2023-02-21T19:03:34.139Z,97951.81
2023-02-21T19:06:00.871Z,97907.38
2023-02-21T19:08:28.398Z,97899.25
2023-02-21T19:10:54.987Z,97864.22
2023-02-21T19:13:21.434Z,97858.94
2023-02-21T19:15:47.977Z,97812.03
2023-02-21T19:18:14.496Z,97806.06
2023-02-21T19:20:43.546Z,97787.56
2023-02-21T19:23:10.404Z,97787.88
2023-02-21T19:25:37.181Z,97775.69
2023-02-21T19:28:06.901Z,97728.13
2023-02-21T19:30:36.636Z,97705.94
2023-02-21T19:33:06.063Z,97682.97
2023-02-21T19:35:35.341Z,97667.03
2023-02-21T19:38:07.658Z,97613.31
2023-02-21T19:40:35.288Z,97577.75
2023-02-21T19:43:02.398Z,97567.22
2023-02-21T19:45:29.024Z,97543.78
2023-02-21T19:47:55.551Z,97523.66
2023-02-21T19:50:22.410Z,97474.78
2023-02-21T19:52:56.099Z,97482.44
2023-02-21T19:55:22.989Z,97435.72
2023-02-21T19:57:49.739Z,97403.84
2023-02-21T20:00:16.798Z,97390.56
2023-02-21T20:02:46.996Z,97362.69
2023-02-21T20:05:14.701Z,97339.72
2023-02-21T20:07:41.560Z,97330.88
2023-02-21T20:10:11.457Z,97324.88
2023-02-21T20:12:38.010Z,97296.59
2023-02-21T20:15:07.105Z,97274.97
2023-02-21T20:17:35.969Z,97277.91
2023-02-21T20:20:02.640Z,97270.34
2023-02-21T20:22:33.917Z,97268.22
2023-02-21T20:25:01.489Z,97272.16
2023-02-21T20:27:27.981Z,97243.44
2023-02-21T20:29:54.555Z,97224.28
2023-02-21T20:32:21.149Z,97182.34
2023-02-21T20:34:47.832Z,97190.19
2023-02-21T20:37:22.201Z,97145.25
2023-02-21T20:39:49.889Z,97134.13
2023-02-21T20:42:17.363Z,97140.47
2023-02-21T20:44:48.625Z,97106.84
2023-02-21T20:47:15.478Z,97072.09
2023-02-21T20:49:46.697Z,97039.38
2023-02-21T20:52:14.445Z,97002.25
2023-02-21T20:54:42.107Z,96958.13
2023-02-21T20:57:09.463Z,96930.25
2023-02-21T20:59:38.711Z,96923.44
2023-02-21T21:02:05.818Z,96888.41
2023-02-21T21:04:48.146Z,96920.91
2023-02-21T21:07:20.166Z,96939.78
2023-02-21T21:09:48.779Z,96961.75
2023-02-21T21:12:17.986Z,96963.09
2023-02-21T21:14:46.981Z,96943.06
2023-02-21T21:17:16.741Z,96954.97
2023-02-21T21:19:45.127Z,96964.81
2023-02-21T21:22:15.058Z,96941.50
2023-02-21T21:24:41.895Z,96989.41
2023-02-21T21:27:10.217Z,97014.44
2023-02-21T21:29:44.229Z,97036.94
2023-02-21T21:32:12.619Z,97018.00
2023-02-21T21:34:43.292Z,97031.47
2023-02-21T21:37:09.997Z,97021.47
2023-02-21T21:39:37.617Z,97013.72
2023-02-21T21:42:11.601Z,97010.00
2023-02-21T21:44:40.072Z,97006.72
2023-02-21T21:47:07.894Z,96978.84
2023-02-21T21:49:37.361Z,96969.59
2023-02-21T21:52:04.740Z,96985.25
2023-02-21T21:54:36.341Z,96977.66
2023-02-21T21:57:06.547Z,97000.44
2023-02-21T21:59:33.257Z,97001.34
2023-02-21T22:01:59.766Z,97042.69
2023-02-21T22:04:29.634Z,97073.91
2023-02-21T22:06:56.794Z,97092.56
2023-02-21T22:09:26.024Z,97119.31
2023-02-21T22:11:52.880Z,97131.56
2023-02-21T22:14:22.753Z,97139.22
2023-02-21T22:16:50.960Z,97143.31
2023-02-21T22:19:18.718Z,97138.06
2023-02-21T22:21:45.858Z,97179.22
2023-02-21T22:24:16.126Z,97169.69
2023-02-21T22:26:44.852Z,97161.72
2023-02-21T22:29:15.604Z,97208.75
2023-02-21T22:31:43.555Z,97218.44
2023-02-21T22:34:10.130Z,97240.06
2023-02-21T22:36:37.089Z,97267.72
2023-02-21T22:39:11.402Z,97282.72
2023-02-21T22:41:38.078Z,97289.47
2023-02-21T22:44:04.690Z,97265.47
2023-02-21T22:46:42.617Z,97302.66
2023-02-21T22:49:09.939Z,97295.47
2023-02-21T22:51:37.053Z,97292.13
2023-02-21T22:54:08.195Z,97287.81
2023-02-21T22:56:38.614Z,97286.84
2023-02-21T22:59:09.111Z,97287.50
2023-02-21T23:01:35.821Z,97274.25
2023-02-21T23:04:15.963Z,97252.25
2023-02-21T23:06:43.767Z,97279.91
2023-02-21T23:09:15.878Z,97278.28
2023-02-21T23:11:47.799Z,97270.31
2023-02-21T23:14:14.465Z,97234.03
2023-02-21T23:16:42.017Z,97261.78
2023-02-21T23:19:09.146Z,97247.06
2023-02-21T23:21:37.276Z,97266.25
2023-02-21T23:24:03.858Z,97254.59
2023-02-21T23:26:30.270Z,97255.47
2023-02-21T23:28:56.682Z,97259.09
2023-02-21T23:31:23.174Z,97276.25
2023-02-21T23:33:49.834Z,97286.00
2023-02-21T23:36:22.482Z,97287.44
2023-02-21T23:38:51.241Z,97294.03
2023-02-21T23:41:18.666Z,97306.44
2023-02-21T23:43:46.452Z,97309.72
2023-02-21T23:46:24.057Z,97319.47
2023-02-21T23:48:53.827Z,97314.53
2023-02-21T23:51:23.520Z,97319.00
2023-02-21T23:53:49.924Z,97329.75
2023-02-21T23:56:16.560Z,97335.97
